Time;durP1;ratioP1;P1;durP2;ratioP2;P2;SDS_P1;SDS_P2;PMS_P1;PMS_P2;Temp;Humidity;BMP_temperature;BMP_pressure;BME280_temperature;BME280_humidity;BME280_pressure;Samples;Min_cycle;Max_cycle;Signal;HPM_P1;HPM_P2
2024/02/04 00:00:42;;;;;;;1225.53;812.63;;;;;;;;;;7344191;19;20341;-37
2024/02/04 00:03:14;;;;;;;1223.83;808.67;;;;;;;;;;7320049;19;20323;-39
2024/02/04 00:05:44;;;;;;;1229.80;809.95;;;;;;;;;;7343764;19;20317;-39
2024/02/04 00:08:16;;;;;;;1209.90;803.40;;;;;;;;;;7321913;19;20340;-38
2024/02/04 00:10:46;;;;;;;1205.22;800.20;;;;;;;;;;7343854;19;20358;-34
2024/02/04 00:13:16;;;;;;;1206.63;804.88;;;;;;;;;;7320431;19;20297;-38
2024/02/04 00:15:45;;;;;;;1200.00;801.20;;;;;;;;;;7343260;19;20332;-36
2024/02/04 00:18:17;;;;;;;1198.87;794.87;;;;;;;;;;7322073;19;21014;-38
2024/02/04 00:20:47;;;;;;;1186.80;794.30;;;;;;;;;;7343485;19;20391;-39
2024/02/04 00:23:16;;;;;;;1192.70;795.38;;;;;;;;;;7320352;19;20297;-37
2024/02/04 00:25:48;;;;;;;1193.03;797.83;;;;;;;;;;7342554;19;20799;-37
2024/02/04 00:28:18;;;;;;;1180.18;791.25;;;;;;;;;;7322628;19;20716;-36
2024/02/04 00:30:49;;;;;;;1167.60;789.38;;;;;;;;;;7342860;19;20352;-38
2024/02/04 00:33:21;;;;;;;1164.70;784.45;;;;;;;;;;7322554;19;20293;-36
2024/02/04 00:35:51;;;;;;;1161.93;779.15;;;;;;;;;;7342903;19;20349;-37
2024/02/04 00:38:20;;;;;;;1152.57;773.90;;;;;;;;;;7322203;19;20309;-35
2024/02/04 00:40:52;;;;;;;1143.35;775.92;;;;;;;;;;7343118;19;20340;-36
2024/02/04 00:43:21;;;;;;;1146.82;771.33;;;;;;;;;;7317814;19;20355;-36
2024/02/04 00:45:51;;;;;;;1135.88;770.17;;;;;;;;;;7339466;19;20328;-36
2024/02/04 00:48:23;;;;;;;1137.10;768.45;;;;;;;;;;7320168;19;20321;-36
2024/02/04 00:50:52;;;;;;;1134.45;766.13;;;;;;;;;;7330410;19;20370;-36
2024/02/04 00:53:22;;;;;;;1127.00;765.13;;;;;;;;;;7340015;19;20710;-38
2024/02/04 00:55:51;;;;;;;1129.22;765.60;;;;;;;;;;7342892;19;20673;-37
2024/02/04 00:58:21;;;;;;;1123.85;762.47;;;;;;;;;;7321621;19;20301;-36
2024/02/04 01:00:50;;;;;;;1114.72;760.50;;;;;;;;;;7341983;19;20333;-35
2024/02/04 01:03:19;;;;;;;1119.13;759.75;;;;;;;;;;7319230;19;20322;-38
2024/02/04 01:05:53;;;;;;;1110.70;754.33;;;;;;;;;;7341049;19;20427;-34
2024/02/04 01:08:22;;;;;;;1112.20;751.90;;;;;;;;;;7322674;19;20292;-36
2024/02/04 01:10:53;;;;;;;1089.43;744.25;;;;;;;;;;7340461;19;20942;-37
2024/02/04 01:13:22;;;;;;;1099.57;749.30;;;;;;;;;;7348423;19;20305;-36
2024/02/04 01:15:51;;;;;;;1093.90;748.08;;;;;;;;;;7347198;19;20420;-38
2024/02/04 01:18:21;;;;;;;1094.72;745.20;;;;;;;;;;7349233;19;20301;-34
2024/02/04 01:20:53;;;;;;;1093.10;737.55;;;;;;;;;;7349330;19;20321;-35
2024/02/04 01:23:22;;;;;;;1071.93;734.95;;;;;;;;;;7327750;19;20293;-36
2024/02/04 01:25:52;;;;;;;1077.97;736.33;;;;;;;;;;7341962;19;20408;-34
2024/02/04 01:28:21;;;;;;;1138.75;762.03;;;;;;;;;;7348254;19;20325;-36
2024/02/04 01:30:51;;;;;;;1394.07;875.38;;;;;;;;;;7344777;19;20467;-39
2024/02/04 01:33:20;;;;;;;1228.28;805.40;;;;;;;;;;7326694;19;20301;-38
2024/02/04 01:35:50;;;;;;;1225.20;801.13;;;;;;;;;;7347699;19;20325;-37
2024/02/04 01:38:22;;;;;;;1200.67;794.50;;;;;;;;;;7327493;19;20952;-34
2024/02/04 01:40:53;;;;;;;1188.47;789.85;;;;;;;;;;7348468;19;20321;-35
2024/02/04 01:43:23;;;;;;;1176.87;784.13;;;;;;;;;;7326118;19;20368;-39
2024/02/04 01:45:53;;;;;;;1174.72;777.95;;;;;;;;;;7337406;19;20350;-34
2024/02/04 01:48:23;;;;;;;1178.97;781.60;;;;;;;;;;7349634;19;20343;-37
2024/02/04 01:50:53;;;;;;;1169.50;773.60;;;;;;;;;;7332596;19;20333;-35
2024/02/04 01:53:26;;;;;;;1152.20;773.60;;;;;;;;;;7345375;19;20297;-38
2024/02/04 01:55:56;;;;;;;1147.07;770.53;;;;;;;;;;7325049;19;20346;-37
2024/02/04 01:58:25;;;;;;;1144.38;771.10;;;;;;;;;;7347474;19;20368;-38
2024/02/04 02:00:55;;;;;;;1146.35;766.50;;;;;;;;;;7324691;19;20412;-37
2024/02/04 02:03:25;;;;;;;1138.50;758.97;;;;;;;;;;7346363;19;20892;-35
2024/02/04 02:05:55;;;;;;;1128.37;762.37;;;;;;;;;;7323709;19;20435;-35
2024/02/04 02:08:27;;;;;;;1138.28;760.95;;;;;;;;;;7347815;19;20304;-34
2024/02/04 02:10:59;;;;;;;1129.75;758.60;;;;;;;;;;7325101;19;20422;-38
2024/02/04 02:13:31;;;;;;;1117.22;754.45;;;;;;;;;;7344782;19;20321;-36
2024/02/04 02:16:04;;;;;;;1105.15;752.58;;;;;;;;;;7324213;19;20415;-39
2024/02/04 02:18:36;;;;;;;1119.13;749.28;;;;;;;;;;7348374;19;20336;-35
2024/02/04 02:21:15;;;;;;;1114.38;749.15;;;;;;;;;;7323866;19;20848;-37
2024/02/04 02:23:51;;;;;;;1095.80;744.10;;;;;;;;;;7345872;19;20325;-35
2024/02/04 02:26:24;;;;;;;1095.22;740.40;;;;;;;;;;7325609;19;20292;-38
2024/02/04 02:28:53;;;;;;;1099.97;744.00;;;;;;;;;;7327611;19;20473;-35
2024/02/04 02:31:23;;;;;;;1095.00;740.03;;;;;;;;;;7343810;19;20331;-36
2024/02/04 02:34:08;;;;;;;1163.25;782.70;;;;;;;;;;7319700;19;20876;-37
2024/02/04 02:36:42;;;;;;;1284.95;849.88;;;;;;;;;;7344871;19;20349;-39
2024/02/04 02:39:14;;;;;;;1325.65;865.78;;;;;;;;;;7324167;19;21770;-35
2024/02/04 02:41:47;;;;;;;1213.50;814.67;;;;;;;;;;7346789;19;20727;-36
2024/02/04 02:44:17;;;;;;;1195.30;802.00;;;;;;;;;;7324105;19;20305;-34
2024/02/04 02:46:47;;;;;;;1183.40;796.40;;;;;;;;;;7343343;19;20329;-38
2024/02/04 02:49:17;;;;;;;1179.82;795.38;;;;;;;;;;7325832;19;21160;-37
2024/02/04 02:51:46;;;;;;;1165.53;789.10;;;;;;;;;;7345670;19;20325;-36
2024/02/04 02:54:16;;;;;;;1157.25;781.58;;;;;;;;;;7315157;19;20320;-38
2024/02/04 02:56:48;;;;;;;1159.60;786.92;;;;;;;;;;7345671;19;20329;-36
2024/02/04 02:59:17;;;;;;;1153.82;779.88;;;;;;;;;;7324595;19;20354;-39
2024/02/04 03:01:46;;;;;;;1138.60;774.65;;;;;;;;;;7345131;19;20384;-39
2024/02/04 03:04:16;;;;;;;1131.00;774.83;;;;;;;;;;7323003;19;20289;-40
2024/02/04 03:06:46;;;;;;;1137.70;769.92;;;;;;;;;;7345777;19;20702;-34
2024/02/04 03:09:15;;;;;;;1136.30;770.30;;;;;;;;;;7323935;19;20377;-37
2024/02/04 03:11:48;;;;;;;1119.40;764.50;;;;;;;;;;7344532;19;20344;-35
2024/02/04 03:14:18;;;;;;;1124.20;762.95;;;;;;;;;;7323667;19;20716;-37
2024/02/04 03:16:48;;;;;;;1115.63;758.78;;;;;;;;;;7345350;19;20374;-37
2024/02/04 03:19:20;;;;;;;1111.18;760.85;;;;;;;;;;7325326;19;20331;-33
2024/02/04 03:21:49;;;;;;;1110.43;756.30;;;;;;;;;;7345321;19;20320;-37
2024/02/04 03:24:19;;;;;;;1104.25;756.65;;;;;;;;;;7324776;19;20364;-38
2024/02/04 03:26:51;;;;;;;1103.20;751.83;;;;;;;;;;7343834;19;20332;-39
2024/02/04 03:29:20;;;;;;;1090.82;750.10;;;;;;;;;;7323800;19;20360;-38
2024/02/04 03:31:49;;;;;;;1091.35;745.67;;;;;;;;;;7339273;19;20345;-36
2024/02/04 03:34:19;;;;;;;1085.03;745.35;;;;;;;;;;7321958;19;20453;-36
2024/02/04 03:36:48;;;;;;;1068.72;739.97;;;;;;;;;;7344056;19;20881;-35
2024/02/04 03:39:18;;;;;;;1067.57;732.72;;;;;;;;;;7323783;19;20300;-36
2024/02/04 03:41:47;;;;;;;1119.35;763.35;;;;;;;;;;7340761;19;20713;-39
2024/02/04 03:44:19;;;;;;;1306.68;845.92;;;;;;;;;;7312810;19;20293;-35
2024/02/04 03:46:50;;;;;;;1259.60;829.25;;;;;;;;;;7344562;19;20466;-33
2024/02/04 03:49:19;;;;;;;1209.20;804.47;;;;;;;;;;7323419;19;20779;-37
2024/02/04 03:51:49;;;;;;;1200.40;808.20;;;;;;;;;;7344317;19;20345;-36
2024/02/04 03:54:19;;;;;;;1201.32;804.22;;;;;;;;;;7322822;19;20844;-33
2024/02/04 03:56:48;;;;;;;1186.43;797.55;;;;;;;;;;7344727;19;20407;-35
2024/02/04 03:59:20;;;;;;;1186.35;791.65;;;;;;;;;;7322665;19;20308;-37
2024/02/04 04:01:53;;;;;;;1181.55;788.38;;;;;;;;;;7344214;19;20400;-35
2024/02/04 04:04:22;;;;;;;1159.10;785.08;;;;;;;;;;7321997;19;20322;-37
2024/02/04 04:06:52;;;;;;;1226.28;810.40;;;;;;;;;;7337880;19;20362;-36
2024/02/04 04:09:22;;;;;;;1361.55;869.00;;;;;;;;;;7343352;19;20841;-36
2024/02/04 04:11:51;;;;;;;1355.30;865.30;;;;;;;;;;7344055;19;20325;-36
2024/02/04 04:14:23;;;;;;;1263.07;829.80;;;;;;;;;;7321936;19;20376;-34
2024/02/04 04:16:52;;;;;;;1255.95;828.00;;;;;;;;;;7335332;19;20343;-33
2024/02/04 04:19:22;;;;;;;1246.28;826.50;;;;;;;;;;7343664;19;20297;-36
2024/02/04 04:21:51;;;;;;;1240.28;820.70;;;;;;;;;;7343604;19;20690;-34
2024/02/04 04:24:22;;;;;;;1026.97;699.17;;;;;;;;;;7320276;19;20325;-33
2024/02/04 04:26:51;;;;;;;969.05;660.63;;;;;;;;;;7342551;19;20331;-33
2024/02/04 04:29:23;;;;;;;883.65;600.90;;;;;;;;;;7322155;19;20851;-34
2024/02/04 04:31:53;;;;;;;854.38;569.72;;;;;;;;;;7331300;19;20866;-30
2024/02/04 04:34:22;;;;;;;801.63;530.17;;;;;;;;;;7341620;19;20891;-33
2024/02/04 04:36:51;;;;;;;739.47;479.83;;;;;;;;;;7338621;19;20333;-32
2024/02/04 04:39:21;;;;;;;679.05;424.98;;;;;;;;;;7321538;19;20307;-35
2024/02/04 04:41:50;;;;;;;654.95;402.10;;;;;;;;;;7341742;19;20321;-33
2024/02/04 04:44:20;;;;;;;606.13;361.67;;;;;;;;;;7324131;19;20305;-33
2024/02/04 04:46:52;;;;;;;607.63;363.77;;;;;;;;;;7348717;19;20985;-33
2024/02/04 04:49:21;;;;;;;586.75;344.48;;;;;;;;;;7328074;19;20293;-32
2024/02/04 04:51:51;;;;;;;517.67;283.92;;;;;;;;;;7349023;19;20364;-31
2024/02/04 04:54:20;;;;;;;498.27;261.70;;;;;;;;;;7327565;19;20288;-32
2024/02/04 04:56:50;;;;;;;502.70;269.02;;;;;;;;;;7349703;19;20701;-33
2024/02/04 04:59:19;;;;;;;439.23;213.88;;;;;;;;;;7328190;19;20372;-32
2024/02/04 05:01:49;;;;;;;435.85;207.80;;;;;;;;;;7348425;19;20465;-32
2024/02/04 05:04:24;;;;;;;408.65;190.88;;;;;;;;;;7325054;19;20312;-30
2024/02/04 05:06:54;;;;;;;376.42;172.82;;;;;;;;;;7326766;19;20342;-32
2024/02/04 05:09:24;;;;;;;326.90;147.13;;;;;;;;;;7346999;19;20305;-33
2024/02/04 05:11:53;;;;;;;298.65;136.07;;;;;;;;;;7335198;19;20336;-33
2024/02/04 05:14:22;;;;;;;298.53;131.10;;;;;;;;;;7347699;19;20388;-31
2024/02/04 05:16:52;;;;;;;269.95;120.18;;;;;;;;;;7348095;19;20328;-33
2024/02/04 05:19:24;;;;;;;238.73;96.50;;;;;;;;;;7329948;19;20198;-34
2024/02/04 05:21:53;;;;;;;207.10;82.90;;;;;;;;;;7335164;19;20426;-32
2024/02/04 05:24:23;;;;;;;207.37;80.77;;;;;;;;;;7350099;19;20399;-32
2024/02/04 05:26:52;;;;;;;186.07;72.30;;;;;;;;;;7344537;19;20535;-31
2024/02/04 05:29:22;;;;;;;173.57;66.17;;;;;;;;;;7350064;19;20406;-33
2024/02/04 05:31:51;;;;;;;150.67;56.27;;;;;;;;;;7350519;19;20449;-33
2024/02/04 05:34:23;;;;;;;146.27;55.90;;;;;;;;;;7328269;19;20726;-33
2024/02/04 05:36:53;;;;;;;131.50;51.33;;;;;;;;;;7340375;19;20853;-33
2024/02/04 05:39:23;;;;;;;129.63;50.50;;;;;;;;;;7350165;19;20423;-31
2024/02/04 05:41:53;;;;;;;119.07;40.17;;;;;;;;;;7340493;19;20416;-32
2024/02/04 05:44:22;;;;;;;101.83;37.93;;;;;;;;;;7349233;19;20410;-32
2024/02/04 05:46:52;;;;;;;105.80;39.20;;;;;;;;;;7349642;19;20620;-31
2024/02/04 05:49:24;;;;;;;91.03;33.50;;;;;;;;;;7328222;19;20388;-33
2024/02/04 05:51:53;;;;;;;83.20;33.00;;;;;;;;;;7335624;19;21030;-32
2024/02/04 05:54:23;;;;;;;74.63;29.77;;;;;;;;;;7348152;19;20396;-31
2024/02/04 05:56:52;;;;;;;77.67;29.30;;;;;;;;;;7347152;19;20455;-30
2024/02/04 05:59:21;;;;;;;55.87;23.27;;;;;;;;;;7349028;19;20816;-32
2024/02/04 06:01:51;;;;;;;62.43;22.83;;;;;;;;;;7349139;19;20435;-34
2024/02/04 06:04:20;;;;;;;57.10;22.10;;;;;;;;;;7327423;19;20396;-32
2024/02/04 06:06:52;;;;;;;49.97;20.03;;;;;;;;;;7348369;19;20416;-31
2024/02/04 06:09:22;;;;;;;47.93;18.60;;;;;;;;;;7328249;19;20787;-32
2024/02/04 06:11:51;;;;;;;42.77;16.27;;;;;;;;;;7348705;19;20453;-33
2024/02/04 06:14:21;;;;;;;42.97;15.97;;;;;;;;;;7326237;19;20455;-32
2024/02/04 06:16:50;;;;;;;34.50;14.03;;;;;;;;;;7348963;19;20452;-32
2024/02/04 06:19:19;;;;;;;35.70;13.50;;;;;;;;;;7327829;19;20408;-33
2024/02/04 06:21:49;;;;;;;34.60;13.37;;;;;;;;;;7348341;19;20440;-31
2024/02/04 06:24:22;;;;;;;31.67;11.20;;;;;;;;;;7325568;19;20411;-31
2024/02/04 06:26:51;;;;;;;25.43;9.40;;;;;;;;;;7348217;19;20510;-32
2024/02/04 06:29:20;;;;;;;30.43;10.10;;;;;;;;;;7327407;19;20425;-32
2024/02/04 06:31:50;;;;;;;28.03;10.90;;;;;;;;;;7348552;19;20425;-32
2024/02/04 06:34:19;;;;;;;22.20;8.70;;;;;;;;;;7325950;19;20414;-30
2024/02/04 06:36:49;;;;;;;32.30;10.97;;;;;;;;;;7345725;19;20420;-31
2024/02/04 06:39:21;;;;;;;28.43;10.40;;;;;;;;;;7326722;19;20399;-31
2024/02/04 06:41:50;;;;;;;24.13;8.93;;;;;;;;;;7348272;19;20431;-33
2024/02/04 06:44:19;;;;;;;22.70;8.77;;;;;;;;;;7325397;19;20412;-32
2024/02/04 06:46:49;;;;;;;27.00;8.00;;;;;;;;;;7347325;19;20494;-32
2024/02/04 06:49:18;;;;;;;23.03;8.00;;;;;;;;;;7326411;19;20416;-32
2024/02/04 06:51:49;;;;;;;19.03;6.47;;;;;;;;;;7347403;19;20455;-32
2024/02/04 06:54:21;;;;;;;17.47;6.73;;;;;;;;;;7324683;19;20428;-31
2024/02/04 06:56:50;;;;;;;16.80;5.80;;;;;;;;;;7347711;19;20423;-33
2024/02/04 06:59:19;;;;;;;19.00;5.43;;;;;;;;;;7326528;19;20934;-35
2024/02/04 07:01:49;;;;;;;16.47;4.97;;;;;;;;;;7347325;19;20841;-32
2024/02/04 07:04:18;;;;;;;22.43;6.67;;;;;;;;;;7324131;19;20431;-32
2024/02/04 07:06:48;;;;;;;13.77;4.60;;;;;;;;;;7343791;19;20786;-32
2024/02/04 07:09:17;;;;;;;17.57;4.60;;;;;;;;;;7325211;19;20447;-34
2024/02/04 07:11:49;;;;;;;21.17;4.40;;;;;;;;;;7346369;19;20514;-33
2024/02/04 07:14:19;;;;;;;17.10;4.27;;;;;;;;;;7323690;19;20476;-31
2024/02/04 07:16:48;;;;;;;16.33;5.07;;;;;;;;;;7346831;19;20782;-33
2024/02/04 07:19:17;;;;;;;18.10;3.80;;;;;;;;;;7325251;19;20979;-34
2024/02/04 07:21:47;;;;;;;16.50;4.03;;;;;;;;;;7346340;19;21291;-33
2024/02/04 07:24:18;;;;;;;12.60;3.40;;;;;;;;;;7322809;19;20421;-35
2024/02/04 07:26:50;;;;;;;13.93;3.37;;;;;;;;;;7345304;19;20519;-33
2024/02/04 07:29:20;;;;;;;14.40;3.50;;;;;;;;;;7325485;19;20403;-34
2024/02/04 07:31:49;;;;;;;16.40;3.90;;;;;;;;;;7346587;19;20506;-32
2024/02/04 07:34:18;;;;;;;14.10;3.40;;;;;;;;;;7323631;19;20424;-32
2024/02/04 07:36:48;;;;;;;11.97;2.80;;;;;;;;;;7344215;19;20824;-32
2024/02/04 07:39:17;;;;;;;15.07;3.17;;;;;;;;;;7325038;19;21373;-33
2024/02/04 07:41:47;;;;;;;15.30;3.40;;;;;;;;;;7346306;19;20438;-35
2024/02/04 07:44:19;;;;;;;15.07;3.50;;;;;;;;;;7322258;19;20407;-31
2024/02/04 07:46:48;;;;;;;15.17;3.23;;;;;;;;;;7345465;19;20427;-34
2024/02/04 07:49:17;;;;;;;13.33;3.47;;;;;;;;;;7324555;19;20404;-32
2024/02/04 07:51:47;;;;;;;8.90;2.17;;;;;;;;;;7344990;19;20419;-33
2024/02/04 07:54:16;;;;;;;11.90;3.30;;;;;;;;;;7322349;19;21427;-32
2024/02/04 07:56:46;;;;;;;11.77;3.40;;;;;;;;;;7345418;19;20502;-32
2024/02/04 07:59:15;;;;;;;14.07;3.17;;;;;;;;;;7323406;19;20399;-33
2024/02/04 08:01:47;;;;;;;13.27;2.90;;;;;;;;;;7344944;19;20490;-33
2024/02/04 08:04:17;;;;;;;11.10;2.50;;;;;;;;;;7321123;19;20404;-32
2024/02/04 08:06:46;;;;;;;16.83;3.43;;;;;;;;;;7345108;19;20463;-33
2024/02/04 08:09:16;;;;;;;11.30;2.47;;;;;;;;;;7322295;19;20445;-30
2024/02/04 08:11:45;;;;;;;14.23;3.17;;;;;;;;;;7344647;19;20425;-35
2024/02/04 08:14:17;;;;;;;12.07;2.83;;;;;;;;;;7320969;19;20959;-36
2024/02/04 08:16:49;;;;;;;16.03;3.60;;;;;;;;;;7344829;19;20986;-33
2024/02/04 08:19:18;;;;;;;10.20;2.30;;;;;;;;;;7330847;19;20527;-34
2024/02/04 08:21:48;;;;;;;11.57;3.10;;;;;;;;;;7351635;19;20456;-28
2024/02/04 08:24:17;;;;;;;13.40;3.00;;;;;;;;;;7328375;19;20438;-36
2024/02/04 08:26:47;;;;;;;6.83;2.30;;;;;;;;;;7351504;19;21052;-33
2024/02/04 08:29:16;;;;;;;12.70;2.93;;;;;;;;;;7329951;19;20413;-32
2024/02/04 08:31:45;;;;;;;17.33;3.13;;;;;;;;;;7351302;19;20803;-33
2024/02/04 08:34:20;;;;;;;10.40;3.23;;;;;;;;;;7327555;19;20407;-33
2024/02/04 08:36:49;;;;;;;12.07;2.70;;;;;;;;;;7349964;19;20418;-29
2024/02/04 08:39:19;;;;;;;9.70;2.27;;;;;;;;;;7330725;19;21002;-30
2024/02/04 08:41:48;;;;;;;13.57;2.30;;;;;;;;;;7351375;19;20440;-32
2024/02/04 08:44:17;;;;;;;13.90;2.90;;;;;;;;;;7327536;19;20434;-32
2024/02/04 08:47:03;;;;;;;14.70;2.83;;;;;;;;;;7328523;19;20435;-34
2024/02/04 08:49:35;;;;;;;11.63;3.20;;;;;;;;;;7351436;19;20485;-33
2024/02/04 08:52:05;;;;;;;11.37;2.80;;;;;;;;;;7327980;19;20433;-32
2024/02/04 08:54:34;;;;;;;14.63;3.60;;;;;;;;;;7350988;19;20427;-32
2024/02/04 08:57:04;;;;;;;13.57;3.00;;;;;;;;;;7328305;19;20449;-30
2024/02/04 08:59:33;;;;;;;11.27;2.80;;;;;;;;;;7351504;19;20411;-31
2024/02/04 09:02:03;;;;;;;8.40;2.23;;;;;;;;;;7328304;19;20425;-32
2024/02/04 09:04:40;;;;;;;14.50;3.27;;;;;;;;;;7350912;19;20443;-30
2024/02/04 09:07:10;;;;;;;19.83;2.90;;;;;;;;;;7328013;19;20803;-33
2024/02/04 09:09:41;;;;;;;9.90;2.83;;;;;;;;;;7351040;19;20430;-32
2024/02/04 09:12:10;;;;;;;10.03;2.80;;;;;;;;;;7327420;19;20423;-33
2024/02/04 09:14:40;;;;;;;11.60;2.80;;;;;;;;;;7350547;19;20460;-34
2024/02/04 09:17:09;;;;;;;15.80;3.60;;;;;;;;;;7328351;19;20494;-32
2024/02/04 09:19:42;;;;;;;19.83;3.00;;;;;;;;;;7350965;19;20838;-32
2024/02/04 09:22:12;;;;;;;12.13;2.50;;;;;;;;;;7327478;19;20867;-32
2024/02/04 09:24:41;;;;;;;14.63;2.70;;;;;;;;;;7349660;19;20540;-33
2024/02/04 09:27:11;;;;;;;12.17;2.97;;;;;;;;;;7327238;19;20498;-33
2024/02/04 09:29:40;;;;;;;12.93;2.67;;;;;;;;;;7349017;19;20423;-32
2024/02/04 09:32:10;;;;;;;14.80;2.87;;;;;;;;;;7327178;19;20432;-33
2024/02/04 09:34:42;;;;;;;14.37;2.90;;;;;;;;;;7349805;19;20905;-36
2024/02/04 09:37:12;;;;;;;10.00;2.47;;;;;;;;;;7328069;19;20457;-32
2024/02/04 09:39:41;;;;;;;13.57;3.50;;;;;;;;;;7342741;19;20423;-32
2024/02/04 09:42:11;;;;;;;74.87;29.30;;;;;;;;;;7324488;19;20491;-32
2024/02/04 09:44:40;;;;;;;379.10;129.33;;;;;;;;;;7347531;19;20834;-35
2024/02/04 09:47:10;;;;;;;171.40;55.60;;;;;;;;;;7325626;19;20438;-31
2024/02/04 09:49:39;;;;;;;162.77;54.70;;;;;;;;;;7347143;19;20416;-33
2024/02/04 09:52:12;;;;;;;179.77;58.60;;;;;;;;;;7325761;19;20435;-34
2024/02/04 09:54:46;;;;;;;146.77;48.70;;;;;;;;;;7349442;19;20427;-33
2024/02/04 09:57:16;;;;;;;117.07;44.37;;;;;;;;;;7324253;19;20456;-33
2024/02/04 09:59:47;;;;;;;173.33;57.83;;;;;;;;;;7345978;19;20427;-32
2024/02/04 10:02:18;;;;;;;341.17;111.27;;;;;;;;;;7326864;19;20405;-35
2024/02/04 10:04:50;;;;;;;198.77;63.77;;;;;;;;;;7347730;19;20454;-33
2024/02/04 10:07:22;;;;;;;194.03;65.47;;;;;;;;;;7326318;19;21085;-33
2024/02/04 10:09:52;;;;;;;207.83;65.93;;;;;;;;;;7347594;19;20435;-33
2024/02/04 10:12:21;;;;;;;156.83;52.33;;;;;;;;;;7324677;19;20441;-32
2024/02/04 10:14:51;;;;;;;142.33;49.90;;;;;;;;;;7346807;19;20498;-36
2024/02/04 10:17:21;;;;;;;195.60;66.57;;;;;;;;;;7325747;19;20760;-31
2024/02/04 10:19:50;;;;;;;178.27;60.73;;;;;;;;;;7347321;19;20419;-32
2024/02/04 10:22:22;;;;;;;265.43;93.53;;;;;;;;;;7326994;19;20403;-34
2024/02/04 10:24:52;;;;;;;265.53;96.43;;;;;;;;;;7347581;19;20420;-32
2024/02/04 10:27:22;;;;;;;174.23;60.47;;;;;;;;;;7327964;19;20387;-33
2024/02/04 10:30:04;;;;;;;187.30;61.73;;;;;;;;;;7325917;19;21007;-30
2024/02/04 10:32:33;;;;;;;172.93;59.77;;;;;;;;;;7348017;19;20983;-32
2024/02/04 10:35:03;;;;;;;280.87;97.57;;;;;;;;;;7320598;19;20965;-31
2024/02/04 10:37:35;;;;;;;213.47;79.60;;;;;;;;;;7348036;19;20479;-32
2024/02/04 10:40:05;;;;;;;378.77;128.50;;;;;;;;;;7324491;19;20424;-33
2024/02/04 10:42:34;;;;;;;290.60;105.77;;;;;;;;;;7347458;19;21002;-35
2024/02/04 10:45:07;;;;;;;256.63;92.60;;;;;;;;;;7324802;19;20488;-32
2024/02/04 10:47:38;;;;;;;249.30;87.63;;;;;;;;;;7347496;19;20408;-29
2024/02/04 10:50:08;;;;;;;249.00;79.43;;;;;;;;;;7325683;19;20430;-33
2024/02/04 10:52:42;;;;;;;185.87;62.43;;;;;;;;;;7347214;19;20459;-31
2024/02/04 10:55:12;;;;;;;295.73;101.83;;;;;;;;;;7324558;19;20423;-38
2024/02/04 10:57:41;;;;;;;254.17;93.10;;;;;;;;;;7347923;19;20975;-36
2024/02/04 11:00:11;;;;;;;267.47;94.87;;;;;;;;;;7325243;19;20514;-33
2024/02/04 11:02:43;;;;;;;251.10;90.03;;;;;;;;;;7346768;19;20825;-35
2024/02/04 11:05:12;;;;;;;266.10;91.30;;;;;;;;;;7324551;19;20506;-35
2024/02/04 11:07:45;;;;;;;421.60;149.83;;;;;;;;;;7347500;19;20431;-33
2024/02/04 11:10:16;;;;;;;505.53;200.03;;;;;;;;;;7325037;19;20385;-34
2024/02/04 11:12:46;;;;;;;615.73;284.77;;;;;;;;;;7346367;19;20459;-35
2024/02/04 11:15:16;;;;;;;584.60;258.13;;;;;;;;;;7323910;19;20392;-36
2024/02/04 11:18:03;;;;;;;551.83;235.83;;;;;;;;;;7346473;19;20414;-34
2024/02/04 11:20:41;;;;;;;527.10;225.00;;;;;;;;;;7326259;19;20401;-31
2024/02/04 11:23:22;;;;;;;515.50;211.80;;;;;;;;;;7323377;19;21026;-34
2024/02/04 11:25:52;;;;;;;468.07;189.03;;;;;;;;;;7346662;19;20493;-34
2024/02/04 11:28:25;;;;;;;476.23;187.37;;;;;;;;;;7326118;19;20401;-33
2024/02/04 11:30:56;;;;;;;453.57;177.83;;;;;;;;;;7324180;19;20519;-38
2024/02/04 11:33:25;;;;;;;470.33;180.23;;;;;;;;;;7344706;19;20403;-32
2024/02/04 11:36:01;;;;;;;454.93;172.90;;;;;;;;;;7321137;19;20429;-38
2024/02/04 11:38:39;;;;;;;445.07;170.10;;;;;;;;;;7346010;19;20394;-33
2024/02/04 11:41:08;;;;;;;559.40;263.90;;;;;;;;;;7324393;19;20450;-33
2024/02/04 11:43:38;;;;;;;766.57;396.73;;;;;;;;;;7345275;19;20442;-33
2024/02/04 11:46:08;;;;;;;851.87;453.23;;;;;;;;;;7323818;19;20966;-33
2024/02/04 11:48:39;;;;;;;835.33;434.10;;;;;;;;;;7345874;19;21010;-33
2024/02/04 11:51:09;;;;;;;696.93;353.67;;;;;;;;;;7324122;19;20488;-33
2024/02/04 11:53:41;;;;;;;692.27;337.83;;;;;;;;;;7343548;19;20433;-32
2024/02/04 11:56:11;;;;;;;656.70;320.97;;;;;;;;;;7323929;19;20568;-36
2024/02/04 11:58:41;;;;;;;652.97;329.03;;;;;;;;;;7346345;19;20424;-32
2024/02/04 12:01:12;;;;;;;659.70;319.93;;;;;;;;;;7323220;19;20842;-36
2024/02/04 12:03:42;;;;;;;637.33;312.27;;;;;;;;;;7344026;19;20827;-35
2024/02/04 12:06:15;;;;;;;625.63;308.90;;;;;;;;;;7323176;19;20427;-33
2024/02/04 12:08:47;;;;;;;645.63;314.03;;;;;;;;;;7345774;19;20434;-38
2024/02/04 12:11:17;;;;;;;774.30;399.40;;;;;;;;;;7323971;19;20409;-34
2024/02/04 12:13:46;;;;;;;866.87;452.40;;;;;;;;;;7343287;19;20434;-37
2024/02/04 12:16:16;;;;;;;859.20;456.40;;;;;;;;;;7322632;19;20436;-39
2024/02/04 12:18:51;;;;;;;863.20;453.17;;;;;;;;;;7344271;19;20498;-36
2024/02/04 12:21:21;;;;;;;783.13;406.93;;;;;;;;;;7324418;19;20415;-34
2024/02/04 12:23:53;;;;;;;771.40;398.23;;;;;;;;;;7342959;19;20434;-35
2024/02/04 12:26:22;;;;;;;765.37;394.73;;;;;;;;;;7324111;19;20489;-33
2024/02/04 12:28:52;;;;;;;752.20;384.83;;;;;;;;;;7344385;19;20423;-32
2024/02/04 12:31:22;;;;;;;749.37;380.37;;;;;;;;;;7323346;19;20406;-32
2024/02/04 12:33:54;;;;;;;732.57;377.70;;;;;;;;;;7341706;19;20806;-32
2024/02/04 12:36:24;;;;;;;742.30;376.20;;;;;;;;;;7342914;19;20408;-30
2024/02/04 12:38:58;;;;;;;741.53;369.27;;;;;;;;;;7334046;19;20423;-32
2024/02/04 12:41:27;;;;;;;727.00;367.97;;;;;;;;;;7344231;19;20403;-31
2024/02/04 12:43:58;;;;;;;706.00;354.27;;;;;;;;;;7319686;19;20478;-31
2024/02/04 12:46:27;;;;;;;698.40;351.37;;;;;;;;;;7344207;19;20402;-33
2024/02/04 12:48:57;;;;;;;706.40;350.90;;;;;;;;;;7320736;19;20469;-31
2024/02/04 12:51:34;;;;;;;692.30;345.03;;;;;;;;;;7343982;19;20406;-32
2024/02/04 12:54:07;;;;;;;697.83;349.27;;;;;;;;;;7319521;19;20427;-31
2024/02/04 12:56:43;;;;;;;687.90;344.80;;;;;;;;;;7344121;19;20451;-32
2024/02/04 12:59:13;;;;;;;866.77;447.00;;;;;;;;;;7321638;19;20427;-32
2024/02/04 13:01:42;;;;;;;951.97;524.97;;;;;;;;;;7344417;19;20426;-35
2024/02/04 13:04:12;;;;;;;944.07;537.77;;;;;;;;;;7319477;19;20430;-32
2024/02/04 13:06:41;;;;;;;1065.30;598.53;;;;;;;;;;7349410;19;20427;-35
2024/02/04 13:09:13;;;;;;;962.00;534.97;;;;;;;;;;7327844;19;20431;-32
2024/02/04 13:11:45;;;;;;;892.07;485.80;;;;;;;;;;7349825;19;20430;-41
2024/02/04 13:14:14;;;;;;;887.80;488.30;;;;;;;;;;7325856;19;20556;-40
2024/02/04 13:16:44;;;;;;;853.87;463.97;;;;;;;;;;7348340;19;20423;-41
2024/02/04 13:19:13;;;;;;;862.77;462.47;;;;;;;;;;7327344;19;20507;-39
2024/02/04 13:21:43;;;;;;;844.47;456.67;;;;;;;;;;7350791;19;21003;-39
2024/02/04 13:24:15;;;;;;;834.43;451.07;;;;;;;;;;7326467;19;20430;-39
2024/02/04 13:26:44;;;;;;;839.10;455.47;;;;;;;;;;7349801;19;20440;-39
2024/02/04 13:29:14;;;;;;;833.73;443.77;;;;;;;;;;7323102;19;21160;-37
2024/02/04 13:31:43;;;;;;;977.40;549.77;;;;;;;;;;7349923;19;20923;-41
2024/02/04 13:34:13;;;;;;;1095.90;604.60;;;;;;;;;;7324666;19;20403;-40
2024/02/04 13:36:44;;;;;;;1158.90;639.57;;;;;;;;;;7348159;19;20415;-41
2024/02/04 13:39:17;;;;;;;1135.30;622.47;;;;;;;;;;7328078;19;21064;-39
2024/02/04 13:41:47;;;;;;;999.97;558.63;;;;;;;;;;7349552;19;20498;-40
2024/02/04 13:44:16;;;;;;;971.27;543.70;;;;;;;;;;7324656;19;20474;-41
2024/02/04 13:46:46;;;;;;;972.80;541.90;;;;;;;;;;7332344;19;20510;-39
2024/02/04 13:49:15;;;;;;;941.83;534.60;;;;;;;;;;7326800;19;20843;-39
2024/02/04 13:51:45;;;;;;;940.73;522.30;;;;;;;;;;7348880;19;20419;-37
2024/02/04 13:54:18;;;;;;;918.00;524.43;;;;;;;;;;7325083;19;20393;-37
2024/02/04 13:56:48;;;;;;;919.90;512.70;;;;;;;;;;7347217;19;20970;-39
2024/02/04 13:59:17;;;;;;;916.07;509.10;;;;;;;;;;7326811;19;20486;-39
2024/02/04 14:01:46;;;;;;;923.67;510.67;;;;;;;;;;7347844;19;20427;-40
2024/02/04 14:04:16;;;;;;;915.73;508.87;;;;;;;;;;7325060;19;21383;-38
2024/02/04 14:06:45;;;;;;;895.93;496.97;;;;;;;;;;7348708;19;20509;-40
2024/02/04 14:09:17;;;;;;;895.97;489.90;;;;;;;;;;7326770;19;20520;-40
2024/02/04 14:11:47;;;;;;;896.63;486.67;;;;;;;;;;7348364;19;20430;-40
2024/02/04 14:14:16;;;;;;;882.57;493.27;;;;;;;;;;7324965;19;20411;-41
2024/02/04 14:16:46;;;;;;;880.43;479.97;;;;;;;;;;7347495;19;20427;-40